Latest Weather Observations for Goondiwindi

IDN60801

Issued at 2:32 pm EST Saturday 2 July 2022 (issued every 10 minutes, with the page automatically refreshed every 10 minutes)

About weather observations | Map of weather stations | Latest weather observations for NSW | Other Formats
Station Details ID: 041560 Name: GOONDIWINDI AIRPORT Lat: -28.52 Lon: 150.32 Height: 218.0 m
Data from the previous 72 hours. | See also: Recent months for locations in New South Wales
Date/Time
EST
Temp
°C
App
Temp
°C
Dew
Point
°C
Rel
Hum
%
Delta-T
°C
Wind Press
QNH
hPa
Press
MSL
hPa
Rain since
9am
mm
Dir  Spd
km/h
Gust
km/h
Spd
kts
Gust
kts
02/02:30pm 12.7 10.9 10.8 88 1.0 SW 11 15 6 8 1018.1 1018.2 0.2
02/02:00pm 12.1 10.0 11.0 93 0.6 SW 13 20 7 11 1018.5 1018.6 0.2
02/01:30pm 12.1 9.7 11.5 96 0.3 WSW 15 19 8 10 1018.7 1018.8 0.2
02/01:00pm 12.4 10.1 11.6 95 0.4 WSW 15 24 8 13 1018.9 1019.0 0.2
02/12:30pm 13.2 12.2 12.3 94 0.5 WSW 9 17 5 9 1019.3 1019.4 0.2
02/12:00pm 12.5 11.4 12.0 97 0.3 SW 9 13 5 7 1019.7 1019.8 0.2
02/11:30am 12.7 11.0 12.4 98 0.2 SW 13 19 7 10 1020.2 1020.2 0.2
02/11:00am 12.4 10.2 12.1 98 0.2 SW 15 19 8 10 1020.7 1020.7 0.2
02/10:30am 12.7 11.0 12.4 98 0.2 SW 13 19 7 10 1020.7 1020.7 0.2
02/10:00am 13.0 11.4 12.7 98 0.2 WSW 13 15 7 8 1021.0 1021.0 0.2
02/09:30am 13.3 13.1 13.1 99 0.1 SW 6 9 3 5 1020.5 1020.5 0.0
02/09:00am 12.9 12.6 12.7 99 0.1 SW 6 7 3 4 1020.7 1020.7 7.6
02/08:30am 12.7 12.3 12.5 99 0.1 SW 6 7 3 4 1020.4 1020.4 7.6
02/08:00am 12.5 12.8 12.3 99 0.1 SW 2 4 1 2 1020.4 1020.4 7.6
02/07:30am 12.4 11.9 12.2 99 0.1 SW 6 6 3 3 1020.5 1020.5 7.6
02/07:00am 12.4 11.8 12.2 99 0.1 SW 7 9 4 5 1020.6 1020.6 7.6
02/06:30am 12.4 12.3 12.1 98 0.2 SW 4 6 2 3 1019.9 1020.0 7.6
02/06:00am 12.4 11.9 12.1 98 0.2 SW 6 6 3 3 1019.8 1019.9 7.6
02/05:30am 12.5 12.0 12.2 98 0.2 SSW 6 6 3 3 1019.6 1019.7 7.6
02/05:00am 12.6 12.2 12.3 98 0.2 SSW 6 7 3 4 1019.3 1019.4 7.6
02/04:30am 12.8 11.9 12.5 98 0.2 SW 9 13 5 7 1019.8 1019.9 7.6
02/04:00am 12.9 12.4 12.6 98 0.2 SW 7 9 4 5 1020.1 1020.1 7.6
02/03:30am 13.0 12.7 12.7 98 0.2 S 6 9 3 5 1019.6 1019.7 7.4
02/03:00am 13.1 12.6 12.8 98 0.2 SW 7 13 4 7 1019.9 1020.0 6.8
02/02:30am 13.1 13.2 12.8 98 0.2 S 4 6 2 3 1020.1 1020.1 6.4
02/02:00am 13.1 12.8 12.8 98 0.2 WSW 6 6 3 3 1020.5 1020.5 6.4
02/01:30am 13.1 13.2 12.8 98 0.2 SSE 4 6 2 3 1020.1 1020.1 6.2
02/01:00am 13.1 13.6 12.8 98 0.2 S 2 4 1 2 1020.7 1020.7 5.8
02/12:30am 13.1 13.2 12.8 98 0.2 SSE 4 6 2 3 1020.5 1020.5 5.8
02/12:00am 13.1 13.2 12.8 98 0.2 SSW 4 4 2 2 1021.0 1021.0 5.6
 
Date/Time
EST
Temp
°C
App
Temp
°C
Dew
Point
°C
Rel
Hum
%
Delta-T
°C
Wind Press
QNH
hPa
Press
MSL
hPa
Rain since
9am
mm
Dir  Spd
km/h
Gust
km/h
Spd
kts
Gust
kts
01/11:30pm 13.2 13.4 12.9 98 0.2 SSW 4 6 2 3 1021.0 1021.0 5.4
01/11:00pm 13.1 14.0 12.8 98 0.2 CALM 0 2 0 1 1021.3 1021.4 5.2
01/10:30pm 13.1 13.6 12.8 98 0.2 E 2 4 1 2 1021.2 1021.2 5.2
01/10:00pm 13.1 14.0 12.8 98 0.2 CALM 0 0 0 0 1021.3 1021.4 5.2
01/09:30pm 13.2 14.1 12.9 98 0.2 CALM 0 0 0 0 1021.7 1021.8 5.0
01/09:00pm 13.2 13.7 12.9 98 0.2 E 2 4 1 2 1021.5 1021.6 5.0
01/08:30pm 13.2 13.0 12.9 98 0.2 E 6 7 3 4 1021.0 1021.0 4.8
01/08:00pm 13.2 13.0 12.9 98 0.2 E 6 7 3 4 1021.4 1021.5 4.8
01/07:30pm 13.2 13.4 12.9 98 0.2 E 4 6 2 3 1021.7 1021.8 4.6
01/07:00pm 13.2 13.4 12.9 98 0.2 E 4 6 2 3 1021.3 1021.4 4.4
01/06:30pm 13.3 13.1 13.0 98 0.2 E 6 7 3 4 1020.7 1020.7 4.4
01/06:00pm 13.3 13.5 13.0 98 0.2 E 4 6 2 3 1020.8 1020.8 4.4
01/05:30pm 13.3 13.1 13.0 98 0.2 E 6 7 3 4 1020.7 1020.7 4.4
01/05:00pm 13.3 13.5 13.0 98 0.2 E 4 6 2 3 1020.8 1020.8 4.2
01/04:30pm 13.3 13.0 12.8 97 0.3 E 6 7 3 4 1020.7 1020.7 4.0
01/04:00pm 13.3 13.0 12.8 97 0.3 E 6 7 3 4 1021.2 1021.2 3.8
01/03:30pm 13.3 12.5 12.8 97 0.3 E 9 13 5 7 1021.1 1021.1 3.2
01/03:00pm 13.3 13.0 12.8 97 0.3 E 6 9 3 5 1021.1 1021.1 2.4
01/02:30pm 13.2 12.3 12.7 97 0.3 E 9 11 5 6 1020.9 1020.9 1.6
01/02:00pm 13.3 12.8 12.8 97 0.3 E 7 11 4 6 1021.2 1021.2 0.8
01/01:30pm 13.2 12.3 12.7 97 0.3 ENE 9 13 5 7 1021.4 1021.5 0.6
01/01:00pm 13.2 12.2 12.4 95 0.4 ENE 9 13 5 7 1021.9 1022.0 0.4
01/12:30pm 13.5 12.2 12.6 94 0.5 ENE 11 17 6 9 1021.6 1021.7 0.4
01/12:00pm 13.6 12.4 12.8 95 0.4 ENE 11 22 6 12 1022.1 1022.2 0.2
01/11:30am 13.4 12.9 12.8 96 0.3 E 7 13 4 7 1022.4 1022.5 0.2
01/11:00am 13.5 12.7 12.9 96 0.3 ENE 9 17 5 9 1022.9 1023.0 0.2
01/10:30am 13.3 12.0 12.5 95 0.4 E 11 15 6 8 1022.9 1023.0 0.0
01/10:00am 13.6 13.2 12.5 93 0.6 E 6 7 3 4 1023.3 1023.4 0.0
01/09:30am 13.7 13.4 12.6 93 0.6 NE 6 6 3 3 1023.2 1023.2 0.0
01/09:00am 13.6 13.1 12.8 95 0.4 NE 7 9 4 5 1023.1 1023.1 0.0
01/08:30am 14.1 12.3 13.3 95 0.4 NNE 15 20 8 11 1023.2 1023.2 0.0
01/08:00am 13.7 12.4 11.4 86 1.2 NNE 9 11 5 6 1022.7 1022.7 0.0
01/07:30am 13.1 12.2 10.8 86 1.2 ENE 6 7 3 4 1022.8 1022.8 0.0
01/07:00am 12.7 11.7 10.4 86 1.2 E 6 7 3 4 1022.5 1022.5 0.0
01/06:30am 12.7 12.1 10.4 86 1.2 ESE 4 4 2 2 1022.3 1022.3 0.0
01/06:00am 12.6 11.6 10.3 86 1.2 E 6 7 3 4 1021.9 1021.9 0.0
01/05:30am 12.6 11.4 10.3 86 1.2 ESE 7 11 4 6 1021.8 1021.8 0.0
01/05:00am 12.6 11.3 10.1 85 1.3 SE 7 7 4 4 1021.4 1021.4 0.0
01/04:30am 12.6 12.3 10.1 85 1.3 ESE 2 4 1 2 1021.5 1021.5 0.0
01/04:00am 12.8 11.5 10.0 83 1.4 E 7 9 4 5 1021.0 1020.9 0.0
01/03:30am 12.7 11.4 10.1 84 1.4 E 7 9 4 5 1021.4 1021.4 0.0
01/03:00am 12.2 11.1 9.9 86 1.2 ESE 6 7 3 4 1021.5 1021.5 0.0
01/02:30am 12.4 11.6 9.8 84 1.3 ESE 4 6 2 3 1022.0 1022.0 0.0
01/02:00am 12.3 11.6 9.9 85 1.2 ESE 4 6 2 3 1022.0 1022.0 0.0
01/01:30am 12.4 11.3 9.8 84 1.3 E 6 6 3 3 1022.1 1022.1 0.0
01/01:00am 12.7 11.5 9.7 82 1.5 ESE 6 7 3 4 1022.4 1022.4 0.0
01/12:30am 12.4 11.1 9.8 84 1.3 E 7 11 4 6 1022.3 1022.3 0.0
01/12:00am 11.9 10.7 9.5 85 1.2 ESE 6 7 3 4 1022.7 1022.7 0.0
 
Date/Time
EST
Temp
°C
App
Temp
°C
Dew
Point
°C
Rel
Hum
%
Delta-T
°C
Wind Press
QNH
hPa
Press
MSL
hPa
Rain since
9am
mm
Dir  Spd
km/h
Gust
km/h
Spd
kts
Gust
kts
30/11:30pm 11.8 10.6 9.4 85 1.2 ESE 6 6 3 3 1022.9 1022.9 0.0
30/11:00pm 11.9 11.1 9.5 85 1.2 ESE 4 6 2 3 1023.0 1023.0 0.0
30/10:30pm 12.1 10.7 9.7 85 1.2 SE 7 7 4 4 1022.8 1022.8 0.0
30/10:00pm 11.7 10.2 9.3 85 1.2 ESE 7 9 4 5 1022.7 1022.7 0.0
30/09:30pm 12.2 10.8 9.6 84 1.3 SE 7 9 4 5 1022.9 1022.9 0.0
30/09:00pm 12.1 10.7 9.5 84 1.3 ESE 7 9 4 5 1023.0 1023.0 0.0
30/08:30pm 12.8 11.5 9.8 82 1.6 SE 7 7 4 4 1022.9 1022.9 0.0
30/08:00pm 12.6 12.0 10.3 86 1.2 ESE 4 4 2 2 1022.9 1022.9 0.0
30/07:30pm 13.1 12.0 9.9 81 1.7 ESE 6 6 3 3 1022.6 1022.6 0.0
30/07:00pm 13.7 13.1 10.3 80 1.8 SSE 4 4 2 2 1022.4 1022.4 0.0
30/06:30pm 14.0 13.7 10.2 78 2.0 SSE 2 4 1 2 1022.1 1022.1 0.0
30/06:00pm 14.3 13.5 9.7 74 2.4 S 4 6 2 3 1021.9 1021.9 0.0
30/05:30pm 15.3 14.6 10.1 71 2.7 SSE 4 6 2 3 1021.4 1021.4 0.0
30/05:00pm 16.6 15.9 10.2 66 3.4 SE 4 6 2 3 1021.2 1021.1 0.0
30/04:30pm 17.3 16.1 10.2 63 3.8 SE 7 9 4 5 1021.0 1020.9 0.0
30/04:00pm 17.7 15.7 10.1 61 4.1 SE 11 13 6 7 1021.0 1020.9 0.0
30/03:30pm 18.1 16.3 10.7 62 4.0 SE 11 15 6 8 1021.2 1021.1 0.0
30/03:00pm 17.9 16.3 10.3 61 4.1 SE 9 11 5 6 1021.4 1021.4 0.0
30/02:30pm 17.9 16.3 10.3 61 4.1 SSE 9 13 5 7 1021.8 1021.8 0.0
30/02:00pm 17.7 16.0 9.8 60 4.2 SSE 9 11 5 6 1022.2 1022.2 0.0
30/01:30pm 17.4 16.4 10.3 63 3.8 SSE 6 7 3 4 1022.2 1022.2 0.0
30/01:00pm 17.1 16.0 10.5 65 3.5 ESE 7 9 4 5 1022.5 1022.5 0.0
30/12:30pm 16.5 15.5 10.4 67 3.3 SE 6 7 3 4 1023.0 1023.0 0.0
30/12:00pm 16.1 15.4 10.0 67 3.2 ESE 4 7 2 4 1023.6 1023.6 0.0
30/11:30am 15.8 15.1 10.1 69 3.0 SSE 4 6 2 3 1024.0 1024.0 0.0
30/11:00am 15.4 14.7 10.2 71 2.7 E 4 7 2 4 1024.0 1024.0 0.0
30/10:30am 14.7 14.0 9.9 73 2.5 E 4 6 2 3 1024.4 1024.4 0.0
30/10:00am 14.1 12.7 9.5 74 2.4 E 7 9 4 5 1024.5 1024.5 0.0
30/09:30am 13.5 11.7 9.4 76 2.1 E 9 13 5 7 1024.2 1024.2 0.0
30/09:00am 12.4 10.5 9.1 80 1.7 ESE 9 11 5 6 1024.2 1024.2 0.0
30/08:30am 11.5 9.9 8.9 84 1.3 E 7 11 4 6 1024.1 1024.1 0.0
30/08:00am 10.7 9.0 8.5 86 1.1 ESE 7 11 4 6 1024.1 1024.1 0.0
30/07:30am 10.2 8.7 8.5 89 0.8 ESE 6 7 3 4 1024.1 1024.1 0.0
30/07:00am 9.0 7.2 7.8 92 0.6 ESE 7 9 4 5 1023.6 1023.6 0.0
30/06:30am 8.7 7.0 7.5 92 0.6 SE 6 6 3 3 1023.5 1023.5 0.0
30/06:00am 8.6 6.7 7.4 92 0.6 SE 7 9 4 5 1023.0 1023.0 0.0
30/05:30am 8.7 6.8 7.5 92 0.6 ESE 7 9 4 5 1022.8 1022.8 0.0
30/05:00am 8.3 6.6 7.5 95 0.4 SE 6 7 3 4 1022.6 1022.6 0.0
30/04:30am 8.4 7.4 7.2 92 0.6 ENE 2 4 1 2 1022.4 1022.4 0.0
30/04:00am 9.0 7.6 7.3 89 0.8 E 4 6 2 3 1022.1 1022.1 0.0
30/03:30am 9.6 8.7 7.9 89 0.8 E 2 4 1 2 1022.4 1022.4 0.0
30/03:00am 10.1 8.3 8.0 87 1.0 E 7 9 4 5 1022.3 1022.3 0.0
30/02:30am 10.9 9.4 8.5 85 1.2 ENE 6 6 3 3 1022.8 1022.8 0.0
30/02:00am 11.1 10.0 8.5 84 1.3 NE 4 4 2 2 1022.9 1022.9 0.0
30/01:30am 11.3 9.6 8.5 83 1.4 E 7 9 4 5 1022.4 1022.4 0.0
30/01:00am 11.7 10.3 8.7 82 1.5 ENE 6 7 3 4 1023.1 1023.1 0.0
30/12:30am 11.5 9.9 8.7 83 1.4 NE 7 9 4 5 1023.2 1023.2 0.0
30/12:00am 11.7 10.3 8.7 82 1.5 NE 6 9 3 5 1023.3 1023.3 0.0
 
Date/Time
EST
Temp
°C
App
Temp
°C
Dew
Point
°C
Rel
Hum
%
Delta-T
°C
Wind Press
QNH
hPa
Press
MSL
hPa
Rain since
9am
mm
Dir  Spd
km/h
Gust
km/h
Spd
kts
Gust
kts
29/11:30pm 11.6 10.1 8.6 82 1.5 ENE 6 7 3 4 1023.6 1023.6 0.0
29/11:00pm 12.2 10.8 8.9 80 1.7 E 6 11 3 6 1023.5 1023.5 0.0
29/10:30pm 12.1 9.8 8.9 81 1.6 ESE 11 13 6 7 1023.1 1023.1 0.0
29/10:00pm 11.7 10.3 8.7 82 1.5 E 6 7 3 4 1023.6 1023.6 0.0
29/09:30pm 11.7 10.7 8.7 82 1.5 E 4 6 2 3 1023.9 1023.9 0.0
29/09:00pm 11.8 10.3 8.3 79 1.7 ENE 6 7 3 4 1023.9 1023.9 0.0
29/08:30pm 12.1 11.0 8.6 79 1.8 E 4 6 2 3 1024.3 1024.3 0.0
29/08:00pm 12.8 11.7 8.5 75 2.2 E 4 6 2 3 1024.0 1024.0 0.0
29/07:30pm 13.0 11.0 8.7 75 2.2 E 9 11 5 6 1023.6 1023.6 0.0
29/07:00pm 13.9 11.9 8.7 71 2.6 E 9 13 5 7 1023.8 1023.8 0.0
29/06:30pm 14.8 12.9 9.0 68 3.0 E 9 13 5 7 1023.4 1023.4 0.0
29/06:00pm 14.9 12.9 8.8 67 3.1 ESE 9 13 5 7 1022.9 1022.9 0.0
29/05:30pm 15.2 12.8 8.7 65 3.3 E 11 15 6 8 1022.8 1022.8 0.0
29/05:00pm 15.8 13.7 8.3 61 3.8 E 9 13 5 7 1022.7 1022.7 0.0
29/04:30pm 16.8 14.3 8.0 56 4.5 E 11 15 6 8 1022.6 1022.6 0.0
29/04:00pm 17.6 14.3 8.2 54 4.8 E 15 20 8 11 1022.4 1022.4 0.0
29/03:30pm 17.5 15.4 8.1 54 4.8 ENE 9 13 5 7 1022.7 1022.7 0.0
29/03:00pm 17.6 15.4 7.9 53 5.0 E 9 13 5 7 1023.2 1023.2 0.0

Other formats

Comma delimited format used in spreadsheet applications
http://www.bom.gov.au/fwo/IDN60801/IDN60801.99468.axf

JavaScript Object Notation format (JSON) in row-major order
http://www.bom.gov.au/fwo/IDN60801/IDN60801.99468.json

Data quality

Most of these data are generated automatically and are frequently updated. Quality checks on data are not normally performed. It is possible for incorrect values to appear. Refer to information at About Latest Weather Observations and please check the disclaimer before using these data.